Randolph, Utah
Current Conditions -  °F | °C
As of 3:53 PM on Wednesday 22 Oct 2014 (Local Time) from KEVW Reporting Station
Clear Clear  
Wind Chill: 55°   Ceiling: Unl
Heat Index: 55°   Visibility: 10mi
Dew Point: 17°   Wind: 14mph
Humidity: 23%   Direction: 250°WSW
Pressure: 30.21"   Gusts: 24mph
Location:  41.67°N, 111.18°W
Report Text: KEVW 222153Z AUTO 25012G21KT 10SM CLR 13/M08 A3021 RMK AO2 SLP189 T01281083 TSNO
Loading
Personal Weather Stations






























Interactive Weather Map
Tropical Storm Tracking
New forecast layout! Learn more

10-Day Weather Forecast

Advertisements
Track Severe Weather on mobile